createdAt,value
2018-06-28T00:01:32.774Z,53.00
2018-06-28T00:04:01.404Z,53.16
2018-06-28T00:06:30.020Z,53.78
2018-06-28T00:08:58.731Z,53.76
2018-06-28T00:11:27.333Z,54.62
2018-06-28T00:13:55.986Z,54.71
2018-06-28T00:16:24.708Z,54.88
2018-06-28T00:18:53.353Z,55.34
2018-06-28T00:21:21.921Z,54.57
2018-06-28T00:23:50.499Z,55.81
2018-06-28T00:26:19.189Z,56.02
2018-06-28T00:28:47.725Z,56.51
2018-06-28T00:31:16.301Z,56.45
2018-06-28T00:33:45.212Z,56.61
2018-06-28T00:36:13.837Z,56.36
2018-06-28T00:38:42.387Z,56.88
2018-06-28T00:41:11.056Z,56.26
2018-06-28T00:43:39.686Z,56.29
2018-06-28T00:46:08.541Z,56.49
2018-06-28T00:48:37.156Z,57.38
2018-06-28T00:51:05.852Z,57.06
2018-06-28T00:53:34.512Z,57.00
2018-06-28T00:56:03.264Z,57.07
2018-06-28T00:58:31.808Z,57.58
2018-06-28T01:01:00.401Z,58.54
2018-06-28T01:03:29.144Z,58.32
2018-06-28T01:05:57.764Z,58.41
2018-06-28T01:08:26.384Z,58.06
2018-06-28T01:10:55.119Z,58.47
2018-06-28T01:13:23.776Z,58.89
2018-06-28T01:15:52.384Z,58.43
2018-06-28T01:18:21.008Z,59.03
2018-06-28T01:20:49.590Z,58.78
2018-06-28T01:23:18.191Z,58.94
2018-06-28T01:25:46.848Z,59.33
2018-06-28T01:28:15.517Z,58.79
2018-06-28T01:30:44.192Z,59.02
2018-06-28T01:33:12.868Z,59.52
2018-06-28T01:35:41.398Z,58.98
2018-06-28T01:38:09.991Z,59.43
2018-06-28T01:40:38.696Z,59.50
2018-06-28T01:43:28.645Z,59.92
2018-06-28T01:45:57.298Z,60.57
2018-06-28T01:48:26.234Z,61.40
2018-06-28T01:50:54.781Z,61.51
2018-06-28T01:53:23.388Z,60.81
2018-06-28T01:55:52.021Z,60.85
2018-06-28T01:58:21.078Z,61.36
2018-06-28T02:00:49.725Z,61.37
2018-06-28T02:03:18.634Z,60.63
2018-06-28T02:05:48.336Z,60.95
2018-06-28T02:08:16.965Z,61.89
2018-06-28T02:10:45.609Z,61.55
2018-06-28T02:13:14.232Z,61.28
2018-06-28T02:15:42.917Z,61.70
2018-06-28T02:18:11.543Z,62.00
2018-06-28T02:20:40.538Z,62.35
2018-06-28T02:23:09.336Z,62.52
2018-06-28T02:25:38.364Z,62.59
2018-06-28T02:28:07.048Z,63.08
2018-06-28T02:30:35.774Z,62.96
2018-06-28T02:33:04.285Z,62.72
2018-06-28T02:35:32.966Z,63.09
2018-06-28T02:38:01.631Z,62.89
2018-06-28T02:40:30.253Z,64.02
2018-06-28T02:42:58.800Z,63.65
2018-06-28T02:45:27.372Z,63.92
2018-06-28T02:47:55.936Z,63.92
2018-06-28T02:50:24.624Z,64.67
2018-06-28T02:52:53.140Z,65.21
2018-06-28T02:55:21.803Z,64.53
2018-06-28T02:57:50.425Z,64.91
2018-06-28T03:00:19.037Z,64.34
2018-06-28T03:02:47.564Z,64.09
2018-06-28T03:05:16.252Z,64.51
2018-06-28T03:07:44.885Z,64.25
2018-06-28T03:10:13.428Z,64.37
2018-06-28T03:12:42.105Z,64.43
2018-06-28T03:15:10.671Z,65.03
2018-06-28T03:17:39.349Z,64.81
2018-06-28T03:20:08.131Z,63.96
2018-06-28T03:22:36.841Z,64.76
2018-06-28T03:25:05.641Z,64.90
2018-06-28T03:27:34.348Z,64.20
2018-06-28T03:30:03.035Z,64.76
2018-06-28T03:32:31.803Z,65.54
2018-06-28T03:35:00.428Z,66.70
2018-06-28T03:37:29.027Z,66.73
2018-06-28T03:39:57.691Z,66.21
2018-06-28T03:42:26.277Z,66.31
2018-06-28T03:44:54.871Z,65.96
2018-06-28T03:47:23.724Z,67.62
2018-06-28T03:49:52.325Z,67.50
2018-06-28T03:52:20.951Z,67.92
2018-06-28T03:54:49.600Z,69.86
2018-06-28T03:57:18.261Z,70.19
2018-06-28T03:59:46.833Z,70.41
2018-06-28T04:02:15.372Z,69.25
2018-06-28T04:04:43.972Z,68.65
2018-06-28T04:07:12.512Z,68.38
2018-06-28T04:09:41.110Z,67.84
2018-06-28T04:12:09.268Z,66.94
2018-06-28T04:14:37.851Z,65.35
2018-06-28T04:17:06.432Z,64.68
2018-06-28T04:19:35.142Z,65.41
2018-06-28T04:22:03.734Z,65.32
2018-06-28T04:24:32.740Z,65.70
2018-06-28T04:27:01.533Z,66.51
2018-06-28T04:29:30.244Z,67.15
2018-06-28T04:31:58.879Z,67.09
2018-06-28T04:34:27.477Z,66.45
2018-06-28T04:36:56.040Z,66.18
2018-06-28T04:39:24.645Z,66.18
2018-06-28T04:41:53.285Z,65.87
2018-06-28T04:44:21.868Z,64.83
2018-06-28T04:46:50.477Z,65.27
2018-06-28T04:49:19.160Z,65.34
2018-06-28T04:51:47.739Z,66.18
2018-06-28T04:54:16.356Z,66.34
2018-06-28T04:56:44.924Z,66.24
2018-06-28T04:59:13.542Z,65.18
2018-06-28T05:01:42.113Z,65.42
2018-06-28T05:04:10.717Z,65.00
2018-06-28T05:06:39.320Z,64.74
2018-06-28T05:09:08.748Z,65.36
2018-06-28T05:11:37.329Z,64.77
2018-06-28T05:14:06.408Z,64.44
2018-06-28T05:16:35.141Z,63.59
2018-06-28T05:19:03.913Z,63.54
2018-06-28T05:21:32.562Z,62.06
2018-06-28T05:24:01.443Z,61.15
2018-06-28T05:26:30.026Z,60.44
2018-06-28T05:28:58.616Z,60.12
2018-06-28T05:31:27.282Z,61.02
2018-06-28T05:33:55.896Z,60.37
2018-06-28T05:36:24.607Z,59.55
2018-06-28T05:38:53.411Z,59.43
2018-06-28T05:41:22.097Z,58.52
2018-06-28T05:43:50.668Z,58.68
2018-06-28T05:46:19.275Z,58.58
2018-06-28T05:48:47.857Z,58.43
2018-06-28T05:51:16.460Z,58.64
2018-06-28T05:53:45.312Z,57.95
2018-06-28T05:56:13.953Z,57.79
2018-06-28T05:58:42.637Z,58.08
2018-06-28T06:01:11.215Z,57.34
2018-06-28T06:03:39.783Z,56.97
2018-06-28T06:06:08.355Z,56.92
2018-06-28T06:08:36.980Z,56.17
2018-06-28T06:11:05.566Z,57.07
2018-06-28T06:13:34.152Z,57.56
2018-06-28T06:16:02.726Z,57.27
2018-06-28T06:18:31.318Z,57.46
2018-06-28T06:20:59.911Z,56.50
2018-06-28T06:23:28.511Z,56.70
2018-06-28T06:25:57.286Z,56.29
2018-06-28T06:28:25.980Z,57.05
2018-06-28T06:30:54.739Z,56.55
2018-06-28T06:33:23.312Z,56.19
2018-06-28T06:35:51.909Z,57.38
2018-06-28T06:38:20.536Z,56.74
2018-06-28T06:40:49.124Z,57.59
2018-06-28T06:43:17.748Z,57.79
2018-06-28T06:45:46.337Z,57.94
2018-06-28T06:48:15.687Z,57.96
2018-06-28T06:50:44.228Z,58.01
2018-06-28T06:53:12.877Z,56.73
2018-06-28T06:55:41.732Z,56.38
2018-06-28T06:58:10.373Z,56.06
2018-06-28T07:00:39.092Z,55.07
2018-06-28T07:03:07.777Z,54.84
2018-06-28T07:05:36.362Z,53.87
2018-06-28T07:08:05.292Z,52.22
2018-06-28T07:10:33.901Z,52.46
2018-06-28T07:13:02.537Z,52.06
2018-06-28T07:15:31.157Z,51.52
2018-06-28T07:17:59.849Z,51.62
2018-06-28T07:20:28.481Z,51.21
2018-06-28T07:22:57.214Z,47.03
2018-06-28T07:25:25.956Z,47.91
2018-06-28T07:27:54.555Z,49.21
2018-06-28T07:30:23.146Z,46.62
2018-06-28T07:32:51.692Z,46.98
2018-06-28T07:35:20.310Z,46.89
2018-06-28T07:37:49.075Z,44.37
2018-06-28T07:40:17.769Z,44.40
2018-06-28T07:42:46.548Z,45.54
2018-06-28T07:45:15.107Z,45.44
2018-06-28T07:47:43.721Z,46.20
2018-06-28T07:50:12.321Z,45.40
2018-06-28T07:52:41.018Z,45.83
2018-06-28T07:55:09.732Z,44.05
2018-06-28T07:57:38.404Z,42.95
2018-06-28T08:00:07.973Z,43.11
2018-06-28T08:02:37.112Z,42.74
2018-06-28T08:05:05.740Z,43.60
2018-06-28T08:07:34.338Z,43.20
2018-06-28T08:10:02.939Z,42.54
2018-06-28T08:12:31.514Z,43.15
2018-06-28T08:15:00.069Z,43.57
2018-06-28T08:17:28.744Z,42.56
2018-06-28T08:19:57.264Z,41.57
2018-06-28T08:22:25.897Z,41.87
2018-06-28T08:24:54.524Z,42.61
2018-06-28T08:27:23.249Z,42.67
2018-06-28T08:29:51.801Z,42.71
2018-06-28T08:32:20.479Z,43.94
2018-06-28T08:34:49.074Z,42.99
2018-06-28T08:37:17.801Z,41.36
2018-06-28T08:39:46.385Z,40.10
2018-06-28T08:42:15.190Z,39.71
2018-06-28T08:44:43.824Z,39.96
2018-06-28T08:47:12.436Z,39.84
2018-06-28T08:49:41.011Z,39.93
2018-06-28T08:52:09.608Z,40.63
2018-06-28T08:54:38.173Z,40.18
2018-06-28T08:57:06.755Z,38.52
2018-06-28T08:59:35.369Z,39.34
2018-06-28T09:02:03.934Z,38.74
2018-06-28T09:04:32.536Z,40.15
2018-06-28T09:07:01.176Z,39.01
2018-06-28T09:09:29.865Z,39.87
2018-06-28T09:11:58.388Z,38.58
2018-06-28T09:14:27.024Z,38.64
2018-06-28T09:16:55.587Z,39.60
2018-06-28T09:19:24.171Z,38.54
2018-06-28T09:21:52.736Z,39.80
2018-06-28T09:24:21.331Z,38.23
2018-06-28T09:26:49.908Z,39.54
2018-06-28T09:29:18.528Z,40.73
2018-06-28T09:31:47.145Z,39.08
2018-06-28T09:34:15.839Z,39.15
2018-06-28T09:36:44.439Z,40.05
2018-06-28T09:39:13.012Z,39.11
2018-06-28T09:41:41.624Z,40.06
2018-06-28T09:44:10.204Z,39.79
2018-06-28T09:46:38.846Z,39.09
2018-06-28T09:49:07.425Z,38.16
2018-06-28T09:51:36.045Z,38.42
2018-06-28T09:54:04.784Z,37.43
2018-06-28T09:56:33.456Z,37.88
2018-06-28T09:59:02.012Z,37.50
2018-06-28T10:01:30.681Z,37.18
2018-06-28T10:03:59.281Z,38.43
2018-06-28T10:06:27.919Z,37.55
2018-06-28T10:08:56.658Z,36.52
2018-06-28T10:11:25.297Z,35.48
2018-06-28T10:13:53.901Z,37.19
2018-06-28T10:16:22.590Z,37.57
2018-06-28T10:18:51.213Z,37.02
2018-06-28T10:21:19.796Z,35.74
2018-06-28T10:23:48.353Z,36.37
2018-06-28T10:26:17.076Z,36.67
2018-06-28T10:28:45.641Z,37.35
2018-06-28T10:31:14.328Z,36.55
2018-06-28T10:33:43.260Z,36.58
2018-06-28T10:36:16.329Z,36.62
2018-06-28T10:38:45.048Z,36.27
2018-06-28T10:41:13.595Z,36.78
2018-06-28T10:43:42.660Z,36.19
2018-06-28T10:46:11.247Z,35.83
2018-06-28T10:48:39.834Z,35.41
2018-06-28T10:51:08.420Z,37.03
2018-06-28T10:53:37.064Z,35.50
2018-06-28T10:56:05.985Z,35.01
2018-06-28T10:58:34.576Z,36.61
2018-06-28T11:01:03.239Z,36.21
2018-06-28T11:03:31.823Z,35.86
2018-06-28T11:06:00.701Z,36.36
2018-06-28T11:08:29.311Z,34.96
2018-06-28T11:10:57.850Z,34.52
2018-06-28T11:13:26.606Z,35.59
2018-06-28T11:15:55.172Z,35.73
2018-06-28T11:18:23.809Z,34.82
2018-06-28T11:20:52.345Z,33.66
2018-06-28T11:23:20.924Z,33.41
2018-06-28T11:25:49.528Z,35.32
2018-06-28T11:28:18.094Z,34.35
2018-06-28T11:30:46.685Z,35.14
2018-06-28T11:33:15.349Z,33.40
2018-06-28T11:35:44.042Z,34.02
2018-06-28T11:38:12.639Z,34.34
2018-06-28T11:40:41.236Z,34.22
2018-06-28T11:43:09.816Z,34.12
2018-06-28T11:45:38.424Z,34.37
2018-06-28T11:48:07.013Z,33.08
2018-06-28T11:50:35.732Z,34.26
2018-06-28T11:53:04.316Z,33.30
2018-06-28T11:55:32.951Z,32.57
2018-06-28T11:58:01.621Z,31.51
2018-06-28T12:00:30.220Z,33.05
2018-06-28T12:02:58.784Z,32.10
2018-06-28T12:05:27.482Z,32.06
2018-06-28T12:07:56.017Z,32.89
2018-06-28T12:10:24.634Z,33.96
2018-06-28T12:12:53.276Z,33.82
2018-06-28T12:15:22.058Z,32.15
2018-06-28T12:17:50.632Z,31.72
2018-06-28T12:20:19.228Z,31.45
2018-06-28T12:22:47.832Z,31.86
2018-06-28T12:25:16.411Z,32.17
2018-06-28T12:27:44.944Z,32.67
2018-06-28T12:30:13.674Z,31.78
2018-06-28T12:32:42.239Z,30.75
2018-06-28T12:35:10.776Z,32.64
2018-06-28T12:37:39.532Z,31.98
2018-06-28T12:40:08.220Z,33.99
2018-06-28T12:42:36.928Z,32.56
2018-06-28T12:45:05.506Z,33.17
2018-06-28T12:47:50.581Z,31.00
2018-06-28T12:50:19.289Z,31.53
2018-06-28T12:52:50.800Z,30.60
2018-06-28T12:55:20.219Z,31.39
2018-06-28T12:57:49.403Z,30.60
2018-06-28T13:00:18.469Z,30.98
2018-06-28T13:02:47.403Z,30.32
2018-06-28T13:05:16.687Z,32.26
2018-06-28T13:07:45.481Z,30.52
2018-06-28T13:10:15.486Z,30.83
2018-06-28T13:12:44.273Z,29.33
2018-06-28T13:15:13.920Z,29.67
2018-06-28T13:17:42.732Z,28.63
2018-06-28T13:20:11.873Z,29.33
2018-06-28T13:22:41.081Z,29.75
2018-06-28T13:25:10.894Z,27.35
2018-06-28T13:27:39.617Z,29.90
2018-06-28T13:30:09.630Z,30.78
2018-06-28T13:32:38.264Z,28.65
2018-06-28T13:35:07.172Z,28.40
2018-06-28T13:37:35.757Z,29.25
2018-06-28T13:40:04.617Z,30.03
2018-06-28T13:42:33.162Z,31.20
2018-06-28T13:45:01.829Z,30.37
2018-06-28T13:47:30.468Z,28.62
2018-06-28T13:49:59.133Z,28.79
2018-06-28T13:52:27.712Z,29.11
2018-06-28T13:54:56.316Z,29.82
2018-06-28T13:57:24.923Z,28.37
2018-06-28T13:59:53.637Z,29.26
2018-06-28T14:02:22.212Z,29.12
2018-06-28T14:04:50.868Z,28.02
2018-06-28T14:07:19.445Z,28.80
2018-06-28T14:09:48.066Z,29.61
2018-06-28T14:12:16.746Z,28.41
2018-06-28T14:14:45.350Z,28.64
2018-06-28T14:17:13.921Z,28.87
2018-06-28T14:19:42.529Z,29.98
2018-06-28T14:22:11.262Z,30.29
2018-06-28T14:24:39.836Z,30.17
2018-06-28T14:27:09.329Z,29.54
2018-06-28T14:29:37.871Z,28.80
2018-06-28T14:32:06.864Z,29.22
2018-06-28T14:34:35.482Z,29.36
2018-06-28T14:37:04.180Z,28.18
2018-06-28T14:39:32.843Z,29.75
2018-06-28T14:42:01.479Z,30.30
2018-06-28T14:44:30.051Z,29.56
2018-06-28T14:46:58.666Z,28.25
2018-06-28T14:49:27.269Z,28.46
2018-06-28T14:51:56.129Z,28.78
2018-06-28T14:54:24.819Z,28.52
2018-06-28T14:56:53.545Z,28.55
2018-06-28T14:59:22.116Z,27.40
2018-06-28T15:01:50.697Z,29.18
2018-06-28T15:04:19.360Z,29.57
2018-06-28T15:06:47.991Z,29.39
2018-06-28T15:09:16.546Z,30.10
2018-06-28T15:11:45.477Z,30.40
2018-06-28T15:14:14.307Z,30.50
2018-06-28T15:16:42.981Z,30.02
2018-06-28T15:19:11.596Z,28.82
2018-06-28T15:21:40.157Z,27.72
2018-06-28T15:24:08.846Z,28.71
2018-06-28T15:26:37.389Z,27.47
2018-06-28T15:29:06.112Z,26.35
2018-06-28T15:31:34.664Z,26.26
2018-06-28T15:34:03.475Z,25.65
2018-06-28T15:36:32.121Z,25.84
2018-06-28T15:39:00.769Z,26.11
2018-06-28T15:41:29.325Z,26.56
2018-06-28T15:43:57.979Z,26.23
2018-06-28T15:46:26.509Z,25.81
2018-06-28T15:48:55.093Z,26.85
2018-06-28T15:51:23.780Z,27.28
2018-06-28T15:53:52.417Z,26.08
2018-06-28T15:56:21.088Z,26.38
2018-06-28T15:58:49.675Z,26.70
2018-06-28T16:01:18.279Z,26.39
2018-06-28T16:03:46.992Z,27.37
2018-06-28T16:06:15.688Z,28.47
2018-06-28T16:08:44.238Z,28.68
2018-06-28T16:11:12.898Z,30.29
2018-06-28T16:13:41.459Z,29.72
2018-06-28T16:16:10.352Z,30.27
2018-06-28T16:18:38.963Z,32.05
2018-06-28T16:21:07.896Z,30.91
2018-06-28T16:23:36.521Z,32.01
2018-06-28T16:26:05.542Z,30.45
2018-06-28T16:28:34.113Z,29.95
2018-06-28T16:31:02.860Z,29.24
2018-06-28T16:33:31.450Z,29.18
2018-06-28T16:36:00.110Z,29.33
2018-06-28T16:38:28.756Z,28.39
2018-06-28T16:40:57.396Z,29.13
2018-06-28T16:43:26.054Z,29.18
2018-06-28T16:45:54.765Z,27.93
2018-06-28T16:48:23.554Z,27.44
2018-06-28T16:50:52.121Z,27.26
2018-06-28T16:53:20.753Z,27.85
2018-06-28T16:55:49.409Z,27.50
2018-06-28T16:58:18.090Z,28.17
2018-06-28T17:00:46.688Z,27.91
2018-06-28T17:03:16.770Z,28.57
2018-06-28T17:05:45.975Z,28.48
2018-06-28T17:08:14.576Z,28.23
2018-06-28T17:10:43.269Z,28.78
2018-06-28T17:13:11.981Z,28.51
2018-06-28T17:15:40.560Z,28.36
2018-06-28T17:18:09.356Z,28.91
2018-06-28T17:20:37.944Z,29.06
2018-06-28T17:23:06.624Z,28.72
2018-06-28T17:25:35.173Z,29.35
2018-06-28T17:28:03.842Z,29.09
2018-06-28T17:30:32.488Z,28.36
2018-06-28T17:33:01.159Z,28.62
2018-06-28T17:35:29.719Z,27.69
2018-06-28T17:37:58.368Z,28.15
2018-06-28T17:40:26.969Z,29.15
2018-06-28T17:42:55.724Z,29.20
2018-06-28T17:45:24.425Z,29.34
2018-06-28T17:47:53.041Z,28.29
2018-06-28T17:50:21.655Z,29.11
2018-06-28T17:52:50.219Z,29.65
2018-06-28T17:55:18.860Z,29.42
2018-06-28T17:57:47.472Z,29.89
2018-06-28T18:00:16.327Z,30.23
2018-06-28T18:02:45.128Z,31.03
2018-06-28T18:05:13.809Z,32.02
2018-06-28T18:07:42.520Z,32.12
2018-06-28T18:10:11.357Z,32.59
2018-06-28T18:12:39.982Z,33.06
2018-06-28T18:15:08.680Z,33.83
2018-06-28T18:17:37.288Z,33.18
2018-06-28T18:20:05.995Z,33.32
2018-06-28T18:22:34.599Z,33.30
2018-06-28T18:25:03.181Z,32.05
2018-06-28T18:27:31.779Z,32.77
2018-06-28T18:30:00.395Z,33.01
2018-06-28T18:32:31.466Z,32.46
2018-06-28T18:35:00.214Z,32.27
2018-06-28T18:37:28.872Z,33.04
2018-06-28T18:39:57.674Z,32.40
2018-06-28T18:42:26.275Z,33.30
2018-06-28T18:44:54.933Z,33.35
2018-06-28T18:47:23.541Z,33.86
2018-06-28T18:49:52.117Z,33.17
2018-06-28T18:52:20.739Z,34.13
2018-06-28T18:54:49.337Z,34.23
2018-06-28T18:57:17.956Z,34.38
2018-06-28T18:59:46.581Z,35.70
2018-06-28T19:02:15.307Z,35.88
2018-06-28T19:04:43.983Z,35.96
2018-06-28T19:07:12.724Z,35.84
2018-06-28T19:09:46.684Z,35.31
2018-06-28T19:12:15.350Z,35.96
2018-06-28T19:14:49.265Z,37.09
2018-06-28T19:17:17.968Z,35.86
2018-06-28T19:19:46.604Z,37.23
2018-06-28T19:22:20.591Z,36.47
2018-06-28T19:24:49.212Z,36.89
2018-06-28T19:27:17.880Z,36.53
2018-06-28T19:29:51.742Z,37.66
2018-06-28T19:32:25.766Z,36.96
2018-06-28T19:34:54.577Z,37.53
2018-06-28T19:37:28.364Z,37.48
2018-06-28T19:40:02.326Z,38.53
2018-06-28T19:42:36.120Z,37.96
2018-06-28T19:45:04.824Z,39.33
2018-06-28T19:47:33.525Z,38.20
2018-06-28T19:50:07.234Z,39.28
2018-06-28T19:52:40.990Z,40.35
2018-06-28T19:55:09.701Z,40.07
2018-06-28T19:57:38.357Z,39.16
2018-06-28T20:00:06.996Z,39.58
2018-06-28T20:02:40.929Z,39.09
2018-06-28T20:05:09.617Z,39.80
2018-06-28T20:07:38.249Z,40.20
2018-06-28T20:10:07.107Z,39.58
2018-06-28T20:12:41.185Z,39.94
2018-06-28T20:15:15.000Z,41.17
2018-06-28T20:18:01.592Z,41.20
2018-06-28T20:32:25.067Z,41.78
2018-06-28T20:34:53.736Z,41.24
2018-06-28T20:37:22.302Z,41.63
2018-06-28T20:39:50.879Z,41.22
